Saint-Henri, Canada
Current Conditions -  °F | °C
As of 2:00 AM on Wednesday 26 Nov 2014 (Local Time) from CYQB Reporting Station
Scattered Clouds Scattered Clouds  
Wind Chill: 24°   Ceiling: Unl
Heat Index: 36°   Visibility: 15mi
Dew Point: 27°   Wind: 23mph
Humidity: 70%   Direction: 250°WSW
Pressure: 30.03"   Gusts: 33mph
Location:  46.68°N, 71.07°W
Report Text: CYQB 260700Z 25020G29KT 15SM SCT043 02/M03 A3003 RMK SC3 SLP173
Loading
Personal Weather Stations






























Interactive Weather Map New forecast layout! Learn more

10-Day Weather Forecast

Advertisements
Track Severe Weather on mobile